createdAt,value
2017-03-22T00:00:27.332Z,6.6
2017-03-22T00:01:29.183Z,6.6
2017-03-22T00:02:31.036Z,6.6
2017-03-22T00:03:33.242Z,6.6
2017-03-22T00:04:35.103Z,6.6
2017-03-22T00:05:37.306Z,6.6
2017-03-22T00:06:39.492Z,6.5
2017-03-22T00:07:41.347Z,6.6
2017-03-22T00:08:43.235Z,6.5
2017-03-22T00:09:45.085Z,6.5
2017-03-22T00:10:46.956Z,6.5
2017-03-22T00:11:48.814Z,6.5
2017-03-22T00:12:51.011Z,6.5
2017-03-22T00:13:53.214Z,6.5
2017-03-22T00:14:55.422Z,6.5
2017-03-22T00:15:57.629Z,6.5
2017-03-22T00:16:59.467Z,6.4
2017-03-22T00:18:01.347Z,6.4
2017-03-22T00:19:03.206Z,6.4
2017-03-22T00:20:05.437Z,6.4
2017-03-22T00:21:07.616Z,6.4
2017-03-22T00:22:09.471Z,6.4
2017-03-22T00:23:11.349Z,6.3
2017-03-22T00:24:13.215Z,6.3
2017-03-22T00:25:15.417Z,6.3
2017-03-22T00:26:17.274Z,6.3
2017-03-22T00:27:19.133Z,6.3
2017-03-22T00:28:21.005Z,6.3
2017-03-22T00:29:23.213Z,6.3
2017-03-22T00:30:25.413Z,6.3
2017-03-22T00:31:27.266Z,6.3
2017-03-22T00:32:29.473Z,6.3
2017-03-22T00:33:31.327Z,6.2
2017-03-22T00:34:33.186Z,6.3
2017-03-22T00:35:35.037Z,6.3
2017-03-22T00:36:36.915Z,6.2
2017-03-22T00:37:38.787Z,6.2
2017-03-22T00:38:40.637Z,6.2
2017-03-22T00:39:42.837Z,6.2
2017-03-22T00:40:44.696Z,6.2
2017-03-22T00:41:46.881Z,6.2
2017-03-22T00:42:48.740Z,6.2
2017-03-22T00:43:50.936Z,6.2
2017-03-22T00:44:52.868Z,6.2
2017-03-22T00:45:55.063Z,6.2
2017-03-22T00:46:56.934Z,6.2
2017-03-22T00:47:59.128Z,6.2
2017-03-22T00:49:00.980Z,6.2
2017-03-22T00:50:03.172Z,6.2
2017-03-22T00:51:05.369Z,6.2
2017-03-22T00:52:07.908Z,6.1
2017-03-22T00:53:09.748Z,6.2
2017-03-22T00:54:11.618Z,6.2
2017-03-22T00:55:13.482Z,6.1
2017-03-22T00:56:15.330Z,6.1
2017-03-22T00:57:17.865Z,6.1
2017-03-22T00:58:19.725Z,6.1
2017-03-22T00:59:22.280Z,6.1
2017-03-22T01:00:24.144Z,6.1
2017-03-22T01:01:26.349Z,6.1
2017-03-22T01:02:28.192Z,6.1
2017-03-22T01:03:30.038Z,6
2017-03-22T01:04:31.927Z,6
2017-03-22T01:05:33.786Z,6.1
2017-03-22T01:06:35.634Z,6
2017-03-22T01:07:37.489Z,6
2017-03-22T01:08:39.689Z,6
2017-03-22T01:09:41.544Z,6
2017-03-22T01:10:43.389Z,6
2017-03-22T01:11:45.238Z,6
2017-03-22T01:12:47.445Z,5.9
2017-03-22T01:13:49.292Z,5.9
2017-03-22T01:14:51.154Z,5.9
2017-03-22T01:15:53.010Z,5.9
2017-03-22T01:16:54.879Z,5.9
2017-03-22T01:17:56.735Z,5.9
2017-03-22T01:18:58.606Z,5.8
2017-03-22T01:20:00.814Z,5.8
2017-03-22T01:21:02.667Z,5.8
2017-03-22T01:22:04.511Z,5.8
2017-03-22T01:23:06.370Z,5.8
2017-03-22T01:24:08.222Z,5.8
2017-03-22T01:25:10.421Z,5.8
2017-03-22T01:26:12.278Z,5.7
2017-03-22T01:27:14.141Z,5.7
2017-03-22T01:28:15.989Z,5.7
2017-03-22T01:29:18.198Z,5.7
2017-03-22T01:30:20.042Z,5.7
2017-03-22T01:31:22.225Z,5.7
2017-03-22T01:32:24.076Z,5.7
2017-03-22T01:33:26.280Z,5.7
2017-03-22T01:34:28.129Z,5.7
2017-03-22T01:35:29.989Z,5.7
2017-03-22T01:36:31.840Z,5.7
2017-03-22T01:37:34.037Z,5.7
2017-03-22T01:38:36.565Z,5.6
2017-03-22T01:39:39.230Z,5.6
2017-03-22T01:40:41.078Z,5.6
2017-03-22T01:41:42.939Z,5.6
2017-03-22T01:42:45.138Z,5.6
2017-03-22T01:43:47.720Z,5.6
2017-03-22T01:44:49.921Z,5.6
2017-03-22T01:45:51.770Z,5.6
2017-03-22T01:46:53.611Z,5.6
2017-03-22T01:47:55.469Z,5.6
2017-03-22T01:48:57.335Z,5.6
2017-03-22T01:49:59.576Z,5.6
2017-03-22T01:51:01.465Z,5.6
2017-03-22T01:52:03.658Z,5.5
2017-03-22T01:53:05.856Z,5.5
2017-03-22T01:54:07.715Z,5.5
2017-03-22T01:55:09.570Z,5.5
2017-03-22T01:56:11.429Z,5.6
2017-03-22T01:57:13.271Z,5.6
2017-03-22T01:58:15.131Z,5.6
2017-03-22T01:59:16.988Z,5.6
2017-03-22T02:00:18.839Z,5.6
2017-03-22T02:01:20.700Z,5.6
2017-03-22T02:02:22.545Z,5.5
2017-03-22T02:03:24.400Z,5.6
2017-03-22T02:04:26.952Z,5.5
2017-03-22T02:05:29.150Z,5.5
2017-03-22T02:06:30.997Z,5.5
2017-03-22T02:07:32.868Z,5.5
2017-03-22T02:08:35.422Z,5.5
2017-03-22T02:09:37.622Z,5.5
2017-03-22T02:10:39.524Z,5.5
2017-03-22T02:11:41.375Z,5.5
2017-03-22T02:12:43.239Z,5.5
2017-03-22T02:13:45.089Z,5.5
2017-03-22T02:14:46.957Z,5.5
2017-03-22T02:15:48.795Z,5.5
2017-03-22T02:16:50.658Z,5.5
2017-03-22T02:17:52.514Z,5.5
2017-03-22T02:18:55.047Z,5.4
2017-03-22T02:19:56.902Z,5.4
2017-03-22T02:20:58.756Z,5.4
2017-03-22T02:22:00.947Z,5.4
2017-03-22T02:23:03.141Z,5.4
2017-03-22T02:24:05.689Z,5.4
2017-03-22T02:25:07.548Z,5.4
2017-03-22T02:26:09.388Z,5.3
2017-03-22T02:27:11.241Z,5.3
2017-03-22T02:28:13.435Z,5.3
2017-03-22T02:29:15.298Z,5.3
2017-03-22T02:30:17.140Z,5.3
2017-03-22T02:31:18.992Z,5.3
2017-03-22T02:32:20.832Z,5.3
2017-03-22T02:33:22.690Z,5.3
2017-03-22T02:34:25.229Z,5.3
2017-03-22T02:35:27.080Z,5.3
2017-03-22T02:36:28.941Z,5.3
2017-03-22T02:37:30.819Z,5.3
2017-03-22T02:38:32.670Z,5.3
2017-03-22T02:39:34.869Z,5.3
2017-03-22T02:40:36.739Z,5.3
2017-03-22T02:41:39.068Z,5.3
2017-03-22T02:42:40.917Z,5.3
2017-03-22T02:43:42.779Z,5.3
2017-03-22T02:44:44.971Z,5.3
2017-03-22T02:45:46.832Z,5.3
2017-03-22T02:46:48.978Z,5.3
2017-03-22T02:47:50.829Z,5.3
2017-03-22T02:48:52.680Z,5.3
2017-03-22T02:49:55.217Z,5.3
2017-03-22T02:50:57.426Z,5.3
2017-03-22T02:51:59.623Z,5.3
2017-03-22T02:53:01.812Z,5.3
2017-03-22T02:54:04.025Z,5.3
2017-03-22T02:55:06.223Z,5.3
2017-03-22T02:56:08.081Z,5.3
2017-03-22T02:57:09.919Z,5.3
2017-03-22T02:58:11.780Z,5.3
2017-03-22T02:59:14.319Z,5.3
2017-03-22T03:00:16.196Z,5.3
2017-03-22T03:01:18.038Z,5.3
2017-03-22T03:02:19.886Z,5.3
2017-03-22T03:03:21.744Z,5.3
2017-03-22T03:04:24.614Z,5.3
2017-03-22T03:05:26.475Z,5.4
2017-03-22T03:06:28.336Z,5.4
2017-03-22T03:07:30.181Z,5.4
2017-03-22T03:08:32.037Z,5.4
2017-03-22T03:09:33.903Z,5.4
2017-03-22T03:10:35.750Z,5.4
2017-03-22T03:11:37.608Z,5.3
2017-03-22T03:12:39.454Z,5.3
2017-03-22T03:13:42.038Z,5.3
2017-03-22T03:14:44.239Z,5.3
2017-03-22T03:15:46.079Z,5.3
2017-03-22T03:16:47.966Z,5.3
2017-03-22T03:17:50.135Z,5.3
2017-03-22T03:18:52.340Z,5.3
2017-03-22T03:19:54.531Z,5.3
2017-03-22T03:20:56.379Z,5.3
2017-03-22T03:21:58.570Z,5.3
2017-03-22T03:23:00.757Z,5.3
2017-03-22T03:24:02.602Z,5.3
2017-03-22T03:25:04.467Z,5.3
2017-03-22T03:26:06.304Z,5.2
2017-03-22T03:27:08.171Z,5.3
2017-03-22T03:28:10.016Z,5.3
2017-03-22T03:29:11.880Z,5.2
2017-03-22T03:30:14.079Z,5.2
2017-03-22T03:31:15.937Z,5.2
2017-03-22T03:32:18.475Z,5.2
2017-03-22T03:33:20.325Z,5.2
2017-03-22T03:34:22.550Z,5.2
2017-03-22T03:35:24.420Z,5.2
2017-03-22T03:36:26.603Z,5.2
2017-03-22T03:37:28.809Z,5.2
2017-03-22T03:38:30.664Z,5.1
2017-03-22T03:39:33.214Z,5.2
2017-03-22T03:40:35.068Z,5.1
2017-03-22T03:41:36.934Z,5.1
2017-03-22T03:42:39.146Z,5.1
2017-03-22T03:43:41.014Z,5.1
2017-03-22T03:44:43.216Z,5.1
2017-03-22T03:45:45.072Z,5.1
2017-03-22T03:46:47.259Z,5.1
2017-03-22T03:47:49.465Z,5.1
2017-03-22T03:48:51.681Z,5.1
2017-03-22T03:49:53.587Z,5.1
2017-03-22T03:50:55.773Z,5.1
2017-03-22T03:51:57.613Z,5.1
2017-03-22T03:52:59.481Z,5.1
2017-03-22T03:54:02.015Z,5.1
2017-03-22T03:55:04.561Z,5.1
2017-03-22T03:56:06.758Z,5.1
2017-03-22T03:57:08.609Z,5.1
2017-03-22T03:58:10.458Z,5.1
2017-03-22T03:59:12.307Z,5.1
2017-03-22T04:00:14.540Z,5.1
2017-03-22T04:01:16.736Z,5.1
2017-03-22T04:02:18.589Z,5.1
2017-03-22T04:03:20.805Z,5.1
2017-03-22T04:04:22.660Z,5.1
2017-03-22T04:05:24.868Z,5.1
2017-03-22T04:06:26.735Z,5.1
2017-03-22T04:07:28.575Z,5.1
2017-03-22T04:08:30.460Z,5.1
2017-03-22T04:09:32.309Z,5.1
2017-03-22T04:10:34.167Z,5.1
2017-03-22T04:11:36.711Z,5.1
2017-03-22T04:12:38.643Z,5.1
2017-03-22T04:13:40.492Z,5.1
2017-03-22T04:14:42.341Z,5.1
2017-03-22T04:15:44.208Z,5.1
2017-03-22T04:16:46.061Z,5.1
2017-03-22T04:17:47.933Z,5.1
2017-03-22T04:18:50.167Z,5.1
2017-03-22T04:19:52.698Z,5.1
2017-03-22T04:20:54.891Z,5.1
2017-03-22T04:21:56.741Z,5.1
2017-03-22T04:22:58.947Z,5.1
2017-03-22T04:24:00.810Z,5.1
2017-03-22T04:25:03.009Z,5.1
2017-03-22T04:26:04.865Z,5.1
2017-03-22T04:27:06.721Z,5.1
2017-03-22T04:28:08.567Z,5.1
2017-03-22T04:29:10.418Z,5.1
2017-03-22T04:30:12.614Z,5.1
2017-03-22T04:31:14.472Z,5.1
2017-03-22T04:32:16.338Z,5.1
2017-03-22T04:33:18.194Z,5.1
2017-03-22T04:34:20.046Z,5.1
2017-03-22T04:35:21.916Z,5
2017-03-22T04:36:23.767Z,5.1
2017-03-22T04:37:25.962Z,5.1
2017-03-22T04:38:28.173Z,5
2017-03-22T04:39:30.025Z,5
2017-03-22T04:40:31.877Z,5.1
2017-03-22T04:41:33.736Z,5
2017-03-22T04:42:35.948Z,5
2017-03-22T04:43:38.137Z,5
2017-03-22T04:44:40.331Z,5
2017-03-22T04:45:42.200Z,5
2017-03-22T04:46:44.035Z,5
2017-03-22T04:47:45.882Z,5
2017-03-22T04:48:48.067Z,5
2017-03-22T04:49:50.271Z,5
2017-03-22T04:50:52.138Z,5
2017-03-22T04:51:53.984Z,5
2017-03-22T04:52:55.824Z,5
2017-03-22T04:53:58.353Z,5
2017-03-22T04:55:00.224Z,5
2017-03-22T04:56:02.072Z,5
2017-03-22T04:57:03.928Z,5
2017-03-22T04:58:05.781Z,5
2017-03-22T04:59:07.989Z,5
2017-03-22T05:00:09.841Z,5
2017-03-22T05:01:11.689Z,5
2017-03-22T05:02:13.884Z,5
2017-03-22T05:03:16.086Z,4.9
2017-03-22T05:04:18.622Z,5
2017-03-22T05:05:20.812Z,4.9
2017-03-22T05:06:22.662Z,4.9
2017-03-22T05:07:24.869Z,5
2017-03-22T05:08:26.726Z,5
2017-03-22T05:09:29.242Z,5
2017-03-22T05:10:31.093Z,5
2017-03-22T05:11:32.950Z,5
2017-03-22T05:12:34.801Z,5
2017-03-22T05:13:37.336Z,5
2017-03-22T05:14:39.185Z,5
2017-03-22T05:15:41.041Z,5
2017-03-22T05:16:42.881Z,5.1
2017-03-22T05:17:45.431Z,5
2017-03-22T05:18:47.633Z,5.1
2017-03-22T05:19:49.833Z,5
2017-03-22T05:20:51.675Z,5.1
2017-03-22T05:21:53.523Z,5
2017-03-22T05:22:55.775Z,5
2017-03-22T05:23:57.625Z,5.1
2017-03-22T05:24:59.834Z,5
2017-03-22T05:26:01.669Z,5
2017-03-22T05:27:03.512Z,5
2017-03-22T05:28:05.371Z,5
2017-03-22T05:29:07.577Z,5
2017-03-22T05:30:09.781Z,5
2017-03-22T05:31:11.653Z,5
2017-03-22T05:32:13.840Z,5
2017-03-22T05:33:15.754Z,5
2017-03-22T05:34:17.940Z,5
2017-03-22T05:35:20.479Z,5
2017-03-22T05:36:22.349Z,5.1
2017-03-22T05:37:24.201Z,5.1
2017-03-22T05:38:26.067Z,5.1
2017-03-22T05:39:28.267Z,5.1
2017-03-22T05:40:30.469Z,5.1
2017-03-22T05:41:32.710Z,5.1
2017-03-22T05:42:34.558Z,5.1
2017-03-22T05:43:36.424Z,5.1
2017-03-22T05:44:38.272Z,5.2
2017-03-22T05:45:40.480Z,5.2
2017-03-22T05:46:42.339Z,5.2
2017-03-22T05:47:44.187Z,5.2
2017-03-22T05:48:46.374Z,5.2
2017-03-22T05:49:48.937Z,5.2
2017-03-22T05:50:50.787Z,5.2
2017-03-22T05:51:52.720Z,5.2
2017-03-22T05:52:54.600Z,5.2
2017-03-22T05:53:56.826Z,5.2
2017-03-22T05:54:59.773Z,5.3
2017-03-22T05:56:01.624Z,5.3
2017-03-22T05:57:03.928Z,5.3
2017-03-22T05:58:06.347Z,5.3
2017-03-22T05:59:08.639Z,5.4
2017-03-22T06:00:10.884Z,5.4
2017-03-22T06:01:12.898Z,5.5
2017-03-22T06:02:14.765Z,5.5
2017-03-22T06:03:16.950Z,5.6
2017-03-22T06:05:23.103Z,5.6
2017-03-22T06:06:25.246Z,5.6
2017-03-22T06:07:27.046Z,5.7
2017-03-22T06:08:29.252Z,5.7
2017-03-22T06:09:31.050Z,5.7
2017-03-22T06:10:32.851Z,5.8
2017-03-22T06:11:34.646Z,5.8
2017-03-22T06:12:37.114Z,5.8
2017-03-22T06:13:39.590Z,5.8
2017-03-22T06:14:42.063Z,5.8
2017-03-22T06:15:44.192Z,5.8
2017-03-22T06:16:45.997Z,5.8
2017-03-22T06:17:47.793Z,5.9
2017-03-22T06:18:49.602Z,5.9
2017-03-22T06:19:51.397Z,5.9
2017-03-22T06:20:53.199Z,5.9
2017-03-22T06:21:55.000Z,6
2017-03-22T06:22:56.796Z,6
2017-03-22T06:23:58.933Z,6
2017-03-22T06:25:00.724Z,6.1
2017-03-22T06:26:02.863Z,6.1
2017-03-22T06:27:04.995Z,6.1
2017-03-22T06:28:07.129Z,6.1
2017-03-22T06:29:08.922Z,6.2
2017-03-22T06:30:11.435Z,6.2
2017-03-22T06:31:13.227Z,6.2
2017-03-22T06:32:15.027Z,6.3
2017-03-22T06:33:16.829Z,6.3
2017-03-22T06:34:19.311Z,6.3
2017-03-22T06:35:21.113Z,6.4
2017-03-22T06:36:22.914Z,6.4
2017-03-22T06:37:24.710Z,6.4
2017-03-22T06:38:26.516Z,6.4
2017-03-22T06:39:28.986Z,6.4
2017-03-22T06:40:31.124Z,6.4
2017-03-22T06:41:32.916Z,6.5
2017-03-22T06:42:34.718Z,6.5
2017-03-22T06:43:36.514Z,6.6
2017-03-22T06:44:38.311Z,6.6
2017-03-22T06:45:40.446Z,6.6
2017-03-22T06:46:42.238Z,6.7
2017-03-22T06:47:44.035Z,6.7
2017-03-22T06:48:46.167Z,6.7
2017-03-22T06:49:47.977Z,6.8
2017-03-22T06:50:50.111Z,6.8
2017-03-22T06:51:52.247Z,6.8
2017-03-22T06:52:54.049Z,6.8
2017-03-22T06:53:55.846Z,6.9
2017-03-22T06:54:57.651Z,6.9
2017-03-22T06:55:59.451Z,7
2017-03-22T06:57:01.247Z,7
2017-03-22T06:58:03.043Z,7
2017-03-22T06:59:05.191Z,7.1
2017-03-22T07:00:07.020Z,7.1
2017-03-22T07:01:08.812Z,7.1
2017-03-22T07:02:10.611Z,7.2
2017-03-22T07:03:12.421Z,7.2
2017-03-22T07:04:14.940Z,7.2
2017-03-22T07:05:17.365Z,7.3
2017-03-22T07:06:19.164Z,7.3
2017-03-22T07:07:20.974Z,7.4
2017-03-22T07:08:22.778Z,7.4
2017-03-22T07:09:24.919Z,7.4
2017-03-22T07:10:26.726Z,7.4
2017-03-22T07:11:28.564Z,7.5
2017-03-22T07:12:30.357Z,7.5
2017-03-22T07:13:32.162Z,7.6
2017-03-22T07:14:34.297Z,7.6
2017-03-22T07:15:36.493Z,7.6
2017-03-22T07:16:38.309Z,7.7
2017-03-22T07:17:40.105Z,7.8
2017-03-22T07:18:42.252Z,7.8
2017-03-22T07:19:44.391Z,7.8
2017-03-22T07:20:46.543Z,7.9
2017-03-22T07:21:48.342Z,7.9
2017-03-22T07:22:50.486Z,8
2017-03-22T07:23:52.627Z,8
2017-03-22T07:24:54.774Z,8.1
2017-03-22T07:25:56.580Z,8.2
2017-03-22T07:26:58.719Z,8.2
2017-03-22T07:28:00.862Z,8.3
2017-03-22T07:29:02.716Z,8.3
2017-03-22T07:30:04.863Z,8.3
2017-03-22T07:31:06.727Z,8.4
2017-03-22T07:32:08.535Z,8.4
2017-03-22T07:33:10.693Z,8.5
2017-03-22T07:34:12.835Z,8.5
2017-03-22T07:35:15.010Z,8.6
2017-03-22T07:36:16.816Z,8.6
2017-03-22T07:37:18.614Z,8.7
2017-03-22T07:38:20.759Z,8.8
2017-03-22T07:39:22.555Z,8.8
2017-03-22T07:40:24.362Z,8.9
2017-03-22T07:41:26.160Z,9
2017-03-22T07:42:27.979Z,9
2017-03-22T07:43:30.125Z,9
2017-03-22T07:44:31.933Z,9.1
2017-03-22T07:45:33.736Z,9.1
2017-03-22T07:46:35.541Z,9.2
2017-03-22T07:47:37.337Z,9.2
2017-03-22T07:48:39.145Z,9.2
2017-03-22T07:49:40.970Z,9.3
2017-03-22T07:50:42.774Z,9.3
2017-03-22T07:51:44.600Z,9.3
2017-03-22T07:52:46.401Z,9.4
2017-03-22T07:53:48.540Z,9.4
2017-03-22T07:54:50.345Z,9.5
2017-03-22T07:55:52.150Z,9.5
2017-03-22T07:56:54.643Z,9.6
2017-03-22T07:57:56.448Z,9.6
2017-03-22T07:58:58.252Z,9.7
2017-03-22T08:00:00.069Z,9.7
2017-03-22T08:01:01.861Z,9.7
2017-03-22T08:02:04.015Z,9.7
2017-03-22T08:03:06.150Z,9.8
2017-03-22T08:04:07.956Z,9.8
2017-03-22T08:05:10.092Z,9.8
2017-03-22T08:06:12.237Z,9.9
2017-03-22T08:07:14.037Z,9.9
2017-03-22T08:08:15.842Z,10
2017-03-22T08:09:17.642Z,10
2017-03-22T08:10:19.791Z,10
2017-03-22T08:11:21.926Z,10.1
2017-03-22T08:12:23.742Z,10.1
2017-03-22T08:13:25.544Z,10.2
2017-03-22T08:14:27.353Z,10.2
2017-03-22T08:15:29.157Z,10.3
2017-03-22T08:16:31.643Z,10.4
2017-03-22T08:17:33.447Z,10.5
2017-03-22T08:18:35.252Z,10.5
2017-03-22T08:19:37.054Z,10.6
2017-03-22T08:20:38.856Z,10.6
2017-03-22T08:21:40.661Z,10.7
2017-03-22T08:22:42.461Z,10.8
2017-03-22T08:23:44.278Z,10.8
2017-03-22T08:24:46.429Z,10.9
2017-03-22T08:25:48.234Z,11
2017-03-22T08:26:50.034Z,11.1
2017-03-22T08:27:52.191Z,11.2
2017-03-22T08:28:54.335Z,11.4
2017-03-22T08:29:56.500Z,11.7
2017-03-22T08:30:58.647Z,11.9
2017-03-22T08:32:00.459Z,12.2
2017-03-22T08:33:02.271Z,12.5
2017-03-22T08:34:04.412Z,12.8
2017-03-22T08:35:06.566Z,13.1
2017-03-22T08:36:08.367Z,13.4
2017-03-22T08:37:10.195Z,13.7
2017-03-22T08:38:11.991Z,13.9
2017-03-22T08:39:14.140Z,14.1
2017-03-22T08:40:16.287Z,14.3
2017-03-22T08:41:18.097Z,14.5
2017-03-22T08:42:19.909Z,14.7
2017-03-22T08:43:22.058Z,14.9
2017-03-22T08:44:24.210Z,15.1
2017-03-22T08:45:26.023Z,15.3
2017-03-22T08:46:27.829Z,15.5
2017-03-22T08:47:29.636Z,15.6
2017-03-22T08:48:31.451Z,15.7
2017-03-22T08:49:33.293Z,15.8
2017-03-22T08:50:35.104Z,16
2017-03-22T08:51:36.921Z,16
2017-03-22T08:52:39.066Z,16.1
2017-03-22T08:53:40.878Z,16.1
2017-03-22T08:54:42.691Z,16.1
2017-03-22T08:55:44.501Z,16.1
2017-03-22T08:56:46.312Z,16.1
2017-03-22T08:57:48.121Z,16.2
2017-03-22T08:58:49.937Z,16.3
2017-03-22T08:59:51.750Z,16.5
2017-03-22T09:00:53.557Z,16.6
2017-03-22T09:01:55.383Z,16.7
2017-03-22T09:02:57.189Z,16.8
2017-03-22T09:03:59.009Z,17
2017-03-22T09:05:01.152Z,17.2
2017-03-22T09:06:02.967Z,17.3
2017-03-22T09:07:04.782Z,17.5
2017-03-22T09:08:06.662Z,17.6
2017-03-22T09:09:08.477Z,17.8
2017-03-22T09:10:10.294Z,17.9
2017-03-22T09:11:12.111Z,18.1
2017-03-22T09:12:14.282Z,18.2
2017-03-22T09:13:16.440Z,18.3
2017-03-22T09:14:18.255Z,18.4
2017-03-22T09:15:20.072Z,18.4
2017-03-22T09:16:21.888Z,18.5
2017-03-22T09:17:23.700Z,18.5
2017-03-22T09:18:25.516Z,18.5
2017-03-22T09:19:27.337Z,18.6
2017-03-22T09:20:29.149Z,18.6
2017-03-22T09:21:30.963Z,18.7
2017-03-22T09:22:32.771Z,18.7
2017-03-22T09:23:34.600Z,18.7
2017-03-22T09:24:36.411Z,18.9
2017-03-22T09:25:38.232Z,19
2017-03-22T09:26:40.041Z,19
2017-03-22T09:27:42.210Z,19
2017-03-22T09:28:44.026Z,19
2017-03-22T09:29:45.856Z,19
2017-03-22T09:30:47.665Z,19.1
2017-03-22T09:31:49.482Z,19.2
2017-03-22T09:32:51.310Z,19.3
2017-03-22T09:33:53.126Z,19.4
2017-03-22T09:34:54.983Z,19.5
2017-03-22T09:35:56.798Z,19.6
2017-03-22T09:36:58.630Z,19.7
2017-03-22T09:38:00.784Z,19.8
2017-03-22T09:39:02.606Z,19.9
2017-03-22T09:40:04.757Z,20
2017-03-22T09:41:06.576Z,20.1
2017-03-22T09:42:08.394Z,20.2
2017-03-22T09:43:10.202Z,20.2
2017-03-22T09:44:12.016Z,20.2
2017-03-22T09:45:13.839Z,20.1
2017-03-22T09:46:15.992Z,20.1
2017-03-22T09:47:17.810Z,20.1
2017-03-22T09:48:19.629Z,20.1
2017-03-22T09:49:21.447Z,20.1
2017-03-22T09:50:23.300Z,20.2
2017-03-22T09:51:25.117Z,20.2
2017-03-22T09:52:26.938Z,20.2
2017-03-22T09:53:28.761Z,20.3
2017-03-22T09:54:30.585Z,20.4
2017-03-22T09:55:32.394Z,20.4
2017-03-22T09:56:34.211Z,20.5
2017-03-22T09:57:36.027Z,20.6
2017-03-22T09:58:37.845Z,20.6
2017-03-22T09:59:39.652Z,20.6
2017-03-22T10:00:41.470Z,20.7
2017-03-22T10:01:43.286Z,20.7
2017-03-22T10:02:45.106Z,20.8
2017-03-22T10:03:46.920Z,20.9
2017-03-22T10:04:48.737Z,20.9
2017-03-22T10:05:50.561Z,20.9
2017-03-22T10:06:52.380Z,21
2017-03-22T10:07:54.542Z,21
2017-03-22T10:08:56.363Z,21
2017-03-22T10:09:58.217Z,20.9
2017-03-22T10:11:00.043Z,21
2017-03-22T10:12:01.860Z,21.1
2017-03-22T10:13:03.679Z,21.2
2017-03-22T10:14:05.494Z,21.3
2017-03-22T10:15:07.314Z,21.3
2017-03-22T10:16:09.140Z,21.4
2017-03-22T10:17:10.948Z,21.4
2017-03-22T10:18:12.770Z,21.4
2017-03-22T10:19:14.590Z,21.5
2017-03-22T10:20:16.413Z,21.5
2017-03-22T10:21:18.251Z,21.4
2017-03-22T10:22:20.075Z,21.5
2017-03-22T10:23:21.893Z,21.6
2017-03-22T10:24:23.712Z,21.6
2017-03-22T10:25:25.527Z,21.6
2017-03-22T10:26:27.339Z,21.7
2017-03-22T10:27:29.160Z,21.7
2017-03-22T10:28:30.975Z,21.7
2017-03-22T10:29:32.800Z,21.8
2017-03-22T10:30:34.620Z,21.8
2017-03-22T10:31:36.438Z,21.8
2017-03-22T10:32:38.264Z,21.8
2017-03-22T10:33:40.084Z,21.8
2017-03-22T10:34:41.903Z,21.8
2017-03-22T10:35:43.732Z,21.8
2017-03-22T10:36:45.554Z,21.9
2017-03-22T10:37:47.365Z,22
2017-03-22T10:38:49.183Z,22.1
2017-03-22T10:39:51.004Z,22.2
2017-03-22T10:40:52.820Z,22.2
2017-03-22T10:41:54.674Z,22.3
2017-03-22T10:42:56.489Z,22.2
2017-03-22T10:43:58.304Z,22.2
2017-03-22T10:45:00.123Z,22.1
2017-03-22T10:46:01.940Z,22.1
2017-03-22T10:47:03.759Z,22.1
2017-03-22T10:48:05.579Z,22.1
2017-03-22T10:49:07.409Z,22.1
2017-03-22T10:50:09.223Z,22.1
2017-03-22T10:51:11.039Z,22.2
2017-03-22T10:52:12.857Z,22.3
2017-03-22T10:53:14.674Z,22.3
2017-03-22T10:54:16.845Z,22.3
2017-03-22T10:55:18.664Z,22.4
2017-03-22T10:56:20.482Z,22.4
2017-03-22T10:57:22.995Z,22.6
2017-03-22T10:58:24.810Z,22.7
2017-03-22T10:59:26.630Z,22.8
2017-03-22T11:00:28.451Z,22.9
2017-03-22T11:01:30.274Z,23
2017-03-22T11:02:32.425Z,23.1
2017-03-22T11:03:34.252Z,23.1
2017-03-22T11:04:36.069Z,23.2
2017-03-22T11:05:37.885Z,23.3
2017-03-22T11:06:39.707Z,23.4
2017-03-22T11:07:41.522Z,23.3
2017-03-22T11:08:43.341Z,23.3
2017-03-22T11:09:45.155Z,23.2
2017-03-22T11:10:47.014Z,23.1
2017-03-22T11:11:48.831Z,23
2017-03-22T11:12:50.650Z,22.9
2017-03-22T11:13:52.830Z,22.8
2017-03-22T11:14:54.987Z,22.8
2017-03-22T11:15:56.805Z,22.8
2017-03-22T11:16:58.628Z,22.8
2017-03-22T11:18:00.459Z,22.8
2017-03-22T11:19:02.272Z,22.8
2017-03-22T11:20:04.099Z,22.8
2017-03-22T11:21:05.944Z,22.8
2017-03-22T11:22:07.772Z,22.8
2017-03-22T11:23:09.592Z,22.9
2017-03-22T11:24:11.742Z,22.9
2017-03-22T11:25:13.558Z,23
2017-03-22T11:26:15.383Z,23.1
2017-03-22T11:27:17.203Z,23.1
2017-03-22T11:28:19.353Z,23.2
2017-03-22T11:29:21.169Z,23.2
2017-03-22T11:30:23.333Z,23.1
2017-03-22T11:31:25.151Z,23.1
2017-03-22T11:32:26.975Z,23
2017-03-22T11:33:28.790Z,23
2017-03-22T11:34:31.305Z,23.1
2017-03-22T11:35:33.132Z,23.2
2017-03-22T11:36:34.951Z,23.3
2017-03-22T11:37:36.765Z,23.3
2017-03-22T11:38:38.587Z,23.3
2017-03-22T11:39:40.418Z,23.4
2017-03-22T11:40:42.237Z,23.4
2017-03-22T11:41:44.404Z,23.4
2017-03-22T11:42:46.571Z,23.3
2017-03-22T11:43:48.441Z,23.3
2017-03-22T11:44:50.253Z,23.3
2017-03-22T11:45:52.070Z,23.4
2017-03-22T11:46:53.892Z,23.5
2017-03-22T11:47:55.743Z,23.7
2017-03-22T11:48:57.894Z,23.8
2017-03-22T11:49:59.719Z,23.8
2017-03-22T11:51:01.532Z,23.9
2017-03-22T11:52:03.366Z,23.9
2017-03-22T11:53:05.180Z,23.9
2017-03-22T11:54:07.004Z,24
2017-03-22T11:55:08.828Z,24
2017-03-22T11:56:10.650Z,24
2017-03-22T11:57:12.476Z,23.9
2017-03-22T11:58:14.299Z,23.9
2017-03-22T11:59:16.124Z,23.9
2017-03-22T12:00:17.943Z,24
2017-03-22T12:01:19.769Z,24
2017-03-22T12:02:21.590Z,24
2017-03-22T12:03:23.408Z,23.9
2017-03-22T12:04:25.228Z,23.9
2017-03-22T12:05:27.042Z,23.9
2017-03-22T12:06:28.865Z,23.8
2017-03-22T12:07:30.684Z,23.8
2017-03-22T12:08:32.495Z,23.7
2017-03-22T12:09:34.313Z,23.7
2017-03-22T12:10:36.169Z,23.7
2017-03-22T12:11:38.001Z,23.7
2017-03-22T12:12:40.166Z,23.8
2017-03-22T12:13:41.984Z,23.9
2017-03-22T12:14:43.801Z,24
2017-03-22T12:15:45.957Z,24.1
2017-03-22T12:16:48.127Z,24.2
2017-03-22T12:17:49.952Z,24.3
2017-03-22T12:18:51.770Z,24.3
2017-03-22T12:19:53.598Z,24.2
2017-03-22T12:20:55.423Z,24.2
2017-03-22T12:21:57.245Z,24.3
2017-03-22T12:22:59.404Z,24.3
2017-03-22T12:24:01.573Z,24.2
2017-03-22T12:25:03.394Z,24.1
2017-03-22T12:26:05.221Z,24
2017-03-22T12:27:07.043Z,24
2017-03-22T12:28:08.853Z,23.9
2017-03-22T12:29:10.676Z,23.9
2017-03-22T12:30:12.834Z,23.9
2017-03-22T12:31:14.653Z,23.9
2017-03-22T12:32:16.479Z,23.9
2017-03-22T12:33:18.301Z,23.9
2017-03-22T12:34:20.119Z,23.9
2017-03-22T12:35:21.959Z,23.9
2017-03-22T12:36:24.108Z,23.9
2017-03-22T12:37:25.937Z,23.8
2017-03-22T12:38:27.759Z,23.8
2017-03-22T12:39:29.618Z,23.8
2017-03-22T12:40:31.441Z,23.8
2017-03-22T12:41:33.595Z,23.7
2017-03-22T12:42:35.417Z,23.7
2017-03-22T12:43:37.235Z,23.6
2017-03-22T12:44:39.062Z,23.6
2017-03-22T12:45:40.930Z,23.6
2017-03-22T12:46:42.745Z,23.7
2017-03-22T12:47:44.565Z,23.6
2017-03-22T12:48:46.383Z,23.6
2017-03-22T12:49:48.209Z,23.5
2017-03-22T12:50:50.024Z,23.3
2017-03-22T12:51:51.844Z,23.2
2017-03-22T12:52:53.674Z,23.1
2017-03-22T12:53:55.504Z,23
2017-03-22T12:54:57.318Z,23
2017-03-22T12:55:59.143Z,23
2017-03-22T12:57:00.961Z,23
2017-03-22T12:58:02.787Z,23.1
2017-03-22T12:59:04.944Z,23
2017-03-22T13:00:06.775Z,22.9
2017-03-22T13:01:08.605Z,22.8
2017-03-22T13:02:10.766Z,22.7
2017-03-22T13:03:12.592Z,22.6
2017-03-22T13:04:14.746Z,22.5
2017-03-22T13:05:16.566Z,22.4
2017-03-22T13:06:18.394Z,22.3
2017-03-22T13:07:20.210Z,22.3
2017-03-22T13:08:22.027Z,22.3
2017-03-22T13:09:23.844Z,22.4
2017-03-22T13:10:26.030Z,22.4
2017-03-22T13:11:27.859Z,22.5
2017-03-22T13:12:29.745Z,22.5
